sensor_id;sensor_type;location;lat;lon;timestamp;pressure;altitude;pressure_sealevel;temperature
80581;BMP180;1474;51.460;7.150;2023-12-04T00:01:47;100427.00;;;15.10
80581;BMP180;1474;51.460;7.150;2023-12-04T00:04:13;100428.00;;;15.10
80581;BMP180;1474;51.460;7.150;2023-12-04T00:06:41;100427.00;;;15.10
80581;BMP180;1474;51.460;7.150;2023-12-04T00:09:07;100416.00;;;15.10
80581;BMP180;1474;51.460;7.150;2023-12-04T00:11:33;100405.00;;;15.10
80581;BMP180;1474;51.460;7.150;2023-12-04T00:13:59;100404.00;;;15.10
80581;BMP180;1474;51.460;7.150;2023-12-04T00:16:26;100403.00;;;15.10
80581;BMP180;1474;51.460;7.150;2023-12-04T00:18:52;100406.00;;;15.10
80581;BMP180;1474;51.460;7.150;2023-12-04T00:21:18;100413.00;;;15.10
80581;BMP180;1474;51.460;7.150;2023-12-04T00:23:44;100406.00;;;15.10
80581;BMP180;1474;51.460;7.150;2023-12-04T00:26:09;100406.00;;;15.20
80581;BMP180;1474;51.460;7.150;2023-12-04T00:28:39;100406.00;;;15.10
80581;BMP180;1474;51.460;7.150;2023-12-04T00:31:05;100399.00;;;15.00
80581;BMP180;1474;51.460;7.150;2023-12-04T00:33:31;100395.00;;;15.10
80581;BMP180;1474;51.460;7.150;2023-12-04T00:35:58;100394.00;;;15.10
80581;BMP180;1474;51.460;7.150;2023-12-04T00:38:24;100387.00;;;15.10
80581;BMP180;1474;51.460;7.150;2023-12-04T00:40:49;100381.00;;;15.10
80581;BMP180;1474;51.460;7.150;2023-12-04T00:43:16;100394.00;;;15.00
80581;BMP180;1474;51.460;7.150;2023-12-04T00:45:44;100388.00;;;15.10
80581;BMP180;1474;51.460;7.150;2023-12-04T00:48:11;100385.00;;;15.20
80581;BMP180;1474;51.460;7.150;2023-12-04T00:50:39;100375.00;;;15.00
80581;BMP180;1474;51.460;7.150;2023-12-04T00:53:07;100381.00;;;15.00
80581;BMP180;1474;51.460;7.150;2023-12-04T00:55:34;100374.00;;;15.00
80581;BMP180;1474;51.460;7.150;2023-12-04T00:58:01;100368.00;;;15.10
80581;BMP180;1474;51.460;7.150;2023-12-04T01:00:28;100367.00;;;15.10
80581;BMP180;1474;51.460;7.150;2023-12-04T01:02:55;100367.00;;;15.10
80581;BMP180;1474;51.460;7.150;2023-12-04T01:05:21;100362.00;;;15.10
80581;BMP180;1474;51.460;7.150;2023-12-04T01:07:49;100357.00;;;15.10
80581;BMP180;1474;51.460;7.150;2023-12-04T01:10:15;100355.00;;;15.10
80581;BMP180;1474;51.460;7.150;2023-12-04T01:12:42;100349.00;;;15.10
80581;BMP180;1474;51.460;7.150;2023-12-04T01:15:10;100355.00;;;15.10
80581;BMP180;1474;51.460;7.150;2023-12-04T01:17:38;100340.00;;;15.10
80581;BMP180;1474;51.460;7.150;2023-12-04T01:20:07;100339.00;;;15.10
80581;BMP180;1474;51.460;7.150;2023-12-04T01:22:34;100344.00;;;15.10
80581;BMP180;1474;51.460;7.150;2023-12-04T01:25:01;100337.00;;;15.10
80581;BMP180;1474;51.460;7.150;2023-12-04T01:27:29;100333.00;;;15.10
80581;BMP180;1474;51.460;7.150;2023-12-04T01:29:59;100333.00;;;15.10
80581;BMP180;1474;51.460;7.150;2023-12-04T01:32:26;100338.00;;;15.10
80581;BMP180;1474;51.460;7.150;2023-12-04T01:34:52;100333.00;;;15.10
80581;BMP180;1474;51.460;7.150;2023-12-04T01:37:21;100318.00;;;15.10
80581;BMP180;1474;51.460;7.150;2023-12-04T01:39:48;100317.00;;;15.10
80581;BMP180;1474;51.460;7.150;2023-12-04T01:42:14;100307.00;;;15.10
80581;BMP180;1474;51.460;7.150;2023-12-04T01:44:43;100315.00;;;15.00
80581;BMP180;1474;51.460;7.150;2023-12-04T01:47:11;100312.00;;;15.00
80581;BMP180;1474;51.460;7.150;2023-12-04T01:49:40;100301.00;;;15.00
80581;BMP180;1474;51.460;7.150;2023-12-04T01:52:08;100305.00;;;15.00
80581;BMP180;1474;51.460;7.150;2023-12-04T01:54:36;100293.00;;;15.00
80581;BMP180;1474;51.460;7.150;2023-12-04T01:57:05;100288.00;;;15.00
80581;BMP180;1474;51.460;7.150;2023-12-04T01:59:33;100287.00;;;15.00
80581;BMP180;1474;51.460;7.150;2023-12-04T02:02:01;100289.00;;;15.00
80581;BMP180;1474;51.460;7.150;2023-12-04T02:04:31;100290.00;;;15.00
80581;BMP180;1474;51.460;7.150;2023-12-04T02:06:59;100289.00;;;15.00
80581;BMP180;1474;51.460;7.150;2023-12-04T02:09:26;100287.00;;;15.00
80581;BMP180;1474;51.460;7.150;2023-12-04T02:11:55;100287.00;;;14.90
80581;BMP180;1474;51.460;7.150;2023-12-04T02:14:22;100288.00;;;15.00
80581;BMP180;1474;51.460;7.150;2023-12-04T02:16:52;100285.00;;;14.90
80581;BMP180;1474;51.460;7.150;2023-12-04T02:19:23;100281.00;;;14.90
80581;BMP180;1474;51.460;7.150;2023-12-04T02:21:50;100282.00;;;15.00
80581;BMP180;1474;51.460;7.150;2023-12-04T02:24:16;100288.00;;;15.00
80581;BMP180;1474;51.460;7.150;2023-12-04T02:26:58;100287.00;;;15.00
80581;BMP180;1474;51.460;7.150;2023-12-04T02:29:32;100275.00;;;15.00
80581;BMP180;1474;51.460;7.150;2023-12-04T02:32:04;100281.00;;;14.90
80581;BMP180;1474;51.460;7.150;2023-12-04T02:34:33;100275.00;;;14.90
80581;BMP180;1474;51.460;7.150;2023-12-04T02:37:02;100269.00;;;14.90
80581;BMP180;1474;51.460;7.150;2023-12-04T02:39:28;100266.00;;;15.00
80581;BMP180;1474;51.460;7.150;2023-12-04T02:41:54;100270.00;;;15.00
80581;BMP180;1474;51.460;7.150;2023-12-04T02:44:21;100270.00;;;15.00
80581;BMP180;1474;51.460;7.150;2023-12-04T02:46:47;100261.00;;;15.00
80581;BMP180;1474;51.460;7.150;2023-12-04T02:49:13;100250.00;;;15.00
80581;BMP180;1474;51.460;7.150;2023-12-04T02:51:41;100246.00;;;15.00
80581;BMP180;1474;51.460;7.150;2023-12-04T02:54:08;100251.00;;;15.00
80581;BMP180;1474;51.460;7.150;2023-12-04T02:56:36;100245.00;;;15.00
80581;BMP180;1474;51.460;7.150;2023-12-04T02:59:03;100246.00;;;15.00
80581;BMP180;1474;51.460;7.150;2023-12-04T03:01:32;100237.00;;;15.00
80581;BMP180;1474;51.460;7.150;2023-12-04T03:03:59;100244.00;;;15.00
80581;BMP180;1474;51.460;7.150;2023-12-04T03:06:25;100241.00;;;15.00
80581;BMP180;1474;51.460;7.150;2023-12-04T03:08:53;100231.00;;;15.00
80581;BMP180;1474;51.460;7.150;2023-12-04T03:11:20;100233.00;;;15.00
80581;BMP180;1474;51.460;7.150;2023-12-04T03:13:47;100227.00;;;15.00
80581;BMP180;1474;51.460;7.150;2023-12-04T03:16:18;100224.00;;;15.00
80581;BMP180;1474;51.460;7.150;2023-12-04T03:18:45;100213.00;;;15.00
80581;BMP180;1474;51.460;7.150;2023-12-04T03:21:13;100216.00;;;15.00
80581;BMP180;1474;51.460;7.150;2023-12-04T03:23:40;100215.00;;;15.00
80581;BMP180;1474;51.460;7.150;2023-12-04T03:26:09;100211.00;;;15.00
80581;BMP180;1474;51.460;7.150;2023-12-04T03:28:38;100208.00;;;15.00
80581;BMP180;1474;51.460;7.150;2023-12-04T03:31:06;100207.00;;;15.00
80581;BMP180;1474;51.460;7.150;2023-12-04T03:33:33;100210.00;;;15.00
80581;BMP180;1474;51.460;7.150;2023-12-04T03:35:59;100208.00;;;15.00
80581;BMP180;1474;51.460;7.150;2023-12-04T03:38:26;100195.00;;;14.90
80581;BMP180;1474;51.460;7.150;2023-12-04T03:40:52;100196.00;;;14.90
80581;BMP180;1474;51.460;7.150;2023-12-04T03:43:18;100186.00;;;15.00
80581;BMP180;1474;51.460;7.150;2023-12-04T03:45:44;100190.00;;;15.00
80581;BMP180;1474;51.460;7.150;2023-12-04T03:48:11;100183.00;;;15.00
80581;BMP180;1474;51.460;7.150;2023-12-04T03:50:39;100183.00;;;15.00
80581;BMP180;1474;51.460;7.150;2023-12-04T03:53:06;100183.00;;;15.00
80581;BMP180;1474;51.460;7.150;2023-12-04T03:55:31;100185.00;;;15.00
80581;BMP180;1474;51.460;7.150;2023-12-04T03:57:58;100184.00;;;15.10
80581;BMP180;1474;51.460;7.150;2023-12-04T04:00:25;100182.00;;;15.00
80581;BMP180;1474;51.460;7.150;2023-12-04T04:02:50;100186.00;;;15.00
80581;BMP180;1474;51.460;7.150;2023-12-04T04:05:16;100176.00;;;15.00
80581;BMP180;1474;51.460;7.150;2023-12-04T04:07:42;100178.00;;;15.00
80581;BMP180;1474;51.460;7.150;2023-12-04T04:10:08;100177.00;;;15.00
80581;BMP180;1474;51.460;7.150;2023-12-04T04:12:34;100176.00;;;15.00
80581;BMP180;1474;51.460;7.150;2023-12-04T04:15:00;100156.00;;;15.00
80581;BMP180;1474;51.460;7.150;2023-12-04T04:17:26;100166.00;;;15.00
80581;BMP180;1474;51.460;7.150;2023-12-04T04:19:53;100148.00;;;15.00
80581;BMP180;1474;51.460;7.150;2023-12-04T04:22:20;100154.00;;;15.00
80581;BMP180;1474;51.460;7.150;2023-12-04T04:24:46;100153.00;;;15.00
80581;BMP180;1474;51.460;7.150;2023-12-04T04:27:12;100153.00;;;15.00
80581;BMP180;1474;51.460;7.150;2023-12-04T04:29:38;100150.00;;;15.00
80581;BMP180;1474;51.460;7.150;2023-12-04T04:32:05;100143.00;;;15.00
80581;BMP180;1474;51.460;7.150;2023-12-04T04:34:30;100151.00;;;15.00
80581;BMP180;1474;51.460;7.150;2023-12-04T04:36:56;100149.00;;;15.00
80581;BMP180;1474;51.460;7.150;2023-12-04T04:39:22;100150.00;;;15.00
80581;BMP180;1474;51.460;7.150;2023-12-04T04:41:48;100149.00;;;15.00
80581;BMP180;1474;51.460;7.150;2023-12-04T04:44:13;100146.00;;;15.00
80581;BMP180;1474;51.460;7.150;2023-12-04T04:46:39;100150.00;;;15.00
80581;BMP180;1474;51.460;7.150;2023-12-04T04:49:05;100136.00;;;15.00
80581;BMP180;1474;51.460;7.150;2023-12-04T04:51:34;100130.00;;;15.00
80581;BMP180;1474;51.460;7.150;2023-12-04T04:54:01;100128.00;;;14.90
80581;BMP180;1474;51.460;7.150;2023-12-04T04:56:27;100128.00;;;15.00
80581;BMP180;1474;51.460;7.150;2023-12-04T04:58:53;100129.00;;;15.00
80581;BMP180;1474;51.460;7.150;2023-12-04T05:01:19;100135.00;;;15.00
80581;BMP180;1474;51.460;7.150;2023-12-04T05:03:44;100133.00;;;15.00
80581;BMP180;1474;51.460;7.150;2023-12-04T05:06:10;100123.00;;;15.00
80581;BMP180;1474;51.460;7.150;2023-12-04T05:08:36;100117.00;;;15.00
80581;BMP180;1474;51.460;7.150;2023-12-04T05:11:02;100116.00;;;15.00
80581;BMP180;1474;51.460;7.150;2023-12-04T05:13:28;100118.00;;;14.90
80581;BMP180;1474;51.460;7.150;2023-12-04T05:15:53;100108.00;;;14.90
80581;BMP180;1474;51.460;7.150;2023-12-04T05:18:19;100100.00;;;14.90
80581;BMP180;1474;51.460;7.150;2023-12-04T05:20:45;100109.00;;;14.90
80581;BMP180;1474;51.460;7.150;2023-12-04T05:23:11;100112.00;;;14.90
80581;BMP180;1474;51.460;7.150;2023-12-04T05:25:36;100110.00;;;15.00
80581;BMP180;1474;51.460;7.150;2023-12-04T05:28:03;100109.00;;;14.90
80581;BMP180;1474;51.460;7.150;2023-12-04T05:30:29;100112.00;;;14.90
80581;BMP180;1474;51.460;7.150;2023-12-04T05:32:54;100112.00;;;15.00
80581;BMP180;1474;51.460;7.150;2023-12-04T05:35:20;100110.00;;;14.90
80581;BMP180;1474;51.460;7.150;2023-12-04T05:37:46;100112.00;;;14.90
80581;BMP180;1474;51.460;7.150;2023-12-04T05:40:12;100104.00;;;14.80
80581;BMP180;1474;51.460;7.150;2023-12-04T05:42:38;100101.00;;;14.90
80581;BMP180;1474;51.460;7.150;2023-12-04T05:45:04;100097.00;;;14.90
80581;BMP180;1474;51.460;7.150;2023-12-04T05:47:30;100092.00;;;14.90
80581;BMP180;1474;51.460;7.150;2023-12-04T05:49:56;100092.00;;;14.90
80581;BMP180;1474;51.460;7.150;2023-12-04T05:52:21;100097.00;;;14.90
80581;BMP180;1474;51.460;7.150;2023-12-04T05:54:47;100094.00;;;14.80
80581;BMP180;1474;51.460;7.150;2023-12-04T05:57:13;100083.00;;;14.80
80581;BMP180;1474;51.460;7.150;2023-12-04T05:59:39;100100.00;;;14.70
80581;BMP180;1474;51.460;7.150;2023-12-04T06:02:04;100105.00;;;14.80
80581;BMP180;1474;51.460;7.150;2023-12-04T06:04:30;100096.00;;;14.80
80581;BMP180;1474;51.460;7.150;2023-12-04T06:06:56;100100.00;;;14.80
80581;BMP180;1474;51.460;7.150;2023-12-04T06:09:22;100097.00;;;14.80
80581;BMP180;1474;51.460;7.150;2023-12-04T06:11:47;100103.00;;;14.80
80581;BMP180;1474;51.460;7.150;2023-12-04T06:14:13;100090.00;;;14.70
80581;BMP180;1474;51.460;7.150;2023-12-04T06:16:39;100106.00;;;14.70
80581;BMP180;1474;51.460;7.150;2023-12-04T06:19:04;100102.00;;;14.80
80581;BMP180;1474;51.460;7.150;2023-12-04T06:21:31;100091.00;;;14.70
80581;BMP180;1474;51.460;7.150;2023-12-04T06:23:58;100093.00;;;14.70
80581;BMP180;1474;51.460;7.150;2023-12-04T06:26:24;100093.00;;;14.80
80581;BMP180;1474;51.460;7.150;2023-12-04T06:28:50;100092.00;;;14.80
80581;BMP180;1474;51.460;7.150;2023-12-04T06:31:17;100092.00;;;14.90
80581;BMP180;1474;51.460;7.150;2023-12-04T06:33:43;100077.00;;;14.80
80581;BMP180;1474;51.460;7.150;2023-12-04T06:36:10;100073.00;;;14.80
80581;BMP180;1474;51.460;7.150;2023-12-04T06:38:40;100065.00;;;14.80
80581;BMP180;1474;51.460;7.150;2023-12-04T06:41:07;100059.00;;;14.80
80581;BMP180;1474;51.460;7.150;2023-12-04T06:43:33;100056.00;;;14.80
80581;BMP180;1474;51.460;7.150;2023-12-04T06:46:00;100052.00;;;14.80
80581;BMP180;1474;51.460;7.150;2023-12-04T06:48:26;100054.00;;;14.80
80581;BMP180;1474;51.460;7.150;2023-12-04T06:50:52;100044.00;;;14.80
80581;BMP180;1474;51.460;7.150;2023-12-04T06:53:18;100039.00;;;14.80
80581;BMP180;1474;51.460;7.150;2023-12-04T06:55:44;100026.00;;;14.80
80581;BMP180;1474;51.460;7.150;2023-12-04T06:58:10;100033.00;;;14.80
80581;BMP180;1474;51.460;7.150;2023-12-04T07:00:36;100027.00;;;14.80
80581;BMP180;1474;51.460;7.150;2023-12-04T07:03:02;100028.00;;;14.80
80581;BMP180;1474;51.460;7.150;2023-12-04T07:05:28;100016.00;;;14.90
80581;BMP180;1474;51.460;7.150;2023-12-04T07:07:53;100015.00;;;14.90
80581;BMP180;1474;51.460;7.150;2023-12-04T07:10:19;100008.00;;;14.90
80581;BMP180;1474;51.460;7.150;2023-12-04T07:12:45;99998.00;;;14.90
80581;BMP180;1474;51.460;7.150;2023-12-04T07:15:11;100007.00;;;14.90
80581;BMP180;1474;51.460;7.150;2023-12-04T07:17:38;100002.00;;;14.90
80581;BMP180;1474;51.460;7.150;2023-12-04T07:20:05;99990.00;;;14.90
80581;BMP180;1474;51.460;7.150;2023-12-04T07:22:34;99994.00;;;14.80
80581;BMP180;1474;51.460;7.150;2023-12-04T07:25:00;99987.00;;;14.90
80581;BMP180;1474;51.460;7.150;2023-12-04T07:27:26;99980.00;;;14.90
80581;BMP180;1474;51.460;7.150;2023-12-04T07:29:52;99978.00;;;14.80
80581;BMP180;1474;51.460;7.150;2023-12-04T07:32:17;99982.00;;;14.80
80581;BMP180;1474;51.460;7.150;2023-12-04T07:34:44;99981.00;;;14.80
80581;BMP180;1474;51.460;7.150;2023-12-04T07:37:09;99976.00;;;14.80
80581;BMP180;1474;51.460;7.150;2023-12-04T07:39:35;99975.00;;;14.80
80581;BMP180;1474;51.460;7.150;2023-12-04T07:42:01;99962.00;;;14.80
80581;BMP180;1474;51.460;7.150;2023-12-04T07:44:27;99956.00;;;14.70
80581;BMP180;1474;51.460;7.150;2023-12-04T07:46:53;99952.00;;;14.70
80581;BMP180;1474;51.460;7.150;2023-12-04T07:49:19;99956.00;;;14.70
80581;BMP180;1474;51.460;7.150;2023-12-04T07:51:45;99957.00;;;14.70
80581;BMP180;1474;51.460;7.150;2023-12-04T07:54:10;99950.00;;;14.70
80581;BMP180;1474;51.460;7.150;2023-12-04T07:56:37;99954.00;;;14.80
80581;BMP180;1474;51.460;7.150;2023-12-04T07:59:02;99944.00;;;14.80
80581;BMP180;1474;51.460;7.150;2023-12-04T08:01:28;99943.00;;;14.80
80581;BMP180;1474;51.460;7.150;2023-12-04T08:03:54;99944.00;;;14.80
80581;BMP180;1474;51.460;7.150;2023-12-04T08:06:20;99942.00;;;14.80
80581;BMP180;1474;51.460;7.150;2023-12-04T08:08:45;99935.00;;;14.70
80581;BMP180;1474;51.460;7.150;2023-12-04T08:11:11;99940.00;;;14.80
80581;BMP180;1474;51.460;7.150;2023-12-04T08:13:39;99941.00;;;14.80
80581;BMP180;1474;51.460;7.150;2023-12-04T08:16:12;99929.00;;;14.80
80581;BMP180;1474;51.460;7.150;2023-12-04T08:18:38;99941.00;;;14.80
80581;BMP180;1474;51.460;7.150;2023-12-04T08:21:04;99935.00;;;14.80
80581;BMP180;1474;51.460;7.150;2023-12-04T08:23:30;99939.00;;;14.70
80581;BMP180;1474;51.460;7.150;2023-12-04T08:25:56;99934.00;;;14.70
80581;BMP180;1474;51.460;7.150;2023-12-04T08:28:23;99941.00;;;14.60
80581;BMP180;1474;51.460;7.150;2023-12-04T08:30:48;99937.00;;;14.60
80581;BMP180;1474;51.460;7.150;2023-12-04T08:33:14;99944.00;;;14.60
80581;BMP180;1474;51.460;7.150;2023-12-04T08:35:40;99939.00;;;14.60
80581;BMP180;1474;51.460;7.150;2023-12-04T08:38:06;99938.00;;;14.50
80581;BMP180;1474;51.460;7.150;2023-12-04T08:40:32;99944.00;;;14.60
80581;BMP180;1474;51.460;7.150;2023-12-04T08:42:57;99933.00;;;14.60
80581;BMP180;1474;51.460;7.150;2023-12-04T08:45:23;99942.00;;;14.60
80581;BMP180;1474;51.460;7.150;2023-12-04T08:47:50;99936.00;;;14.70
80581;BMP180;1474;51.460;7.150;2023-12-04T08:50:15;99938.00;;;14.70
80581;BMP180;1474;51.460;7.150;2023-12-04T08:52:42;99939.00;;;14.70
80581;BMP180;1474;51.460;7.150;2023-12-04T08:55:10;99933.00;;;14.70
80581;BMP180;1474;51.460;7.150;2023-12-04T08:57:35;99928.00;;;14.70
80581;BMP180;1474;51.460;7.150;2023-12-04T09:00:01;99924.00;;;14.70
80581;BMP180;1474;51.460;7.150;2023-12-04T09:02:29;99919.00;;;14.70
80581;BMP180;1474;51.460;7.150;2023-12-04T09:04:56;99914.00;;;14.70
80581;BMP180;1474;51.460;7.150;2023-12-04T09:07:21;99916.00;;;14.70
80581;BMP180;1474;51.460;7.150;2023-12-04T09:09:47;99913.00;;;14.80
80581;BMP180;1474;51.460;7.150;2023-12-04T09:12:13;99907.00;;;14.70
80581;BMP180;1474;51.460;7.150;2023-12-04T09:14:40;99902.00;;;11.00
80581;BMP180;1474;51.460;7.150;2023-12-04T09:17:05;99893.00;;;10.90
80581;BMP180;1474;51.460;7.150;2023-12-04T09:19:32;99896.00;;;12.90
80581;BMP180;1474;51.460;7.150;2023-12-04T09:21:57;99903.00;;;13.90
80581;BMP180;1474;51.460;7.150;2023-12-04T09:24:23;99901.00;;;14.60
80581;BMP180;1474;51.460;7.150;2023-12-04T09:26:49;99899.00;;;15.30
80581;BMP180;1474;51.460;7.150;2023-12-04T09:29:15;99901.00;;;15.80
80581;BMP180;1474;51.460;7.150;2023-12-04T09:31:42;99901.00;;;16.10
80581;BMP180;1474;51.460;7.150;2023-12-04T09:34:08;99895.00;;;16.30
80581;BMP180;1474;51.460;7.150;2023-12-04T09:36:34;99894.00;;;16.50
80581;BMP180;1474;51.460;7.150;2023-12-04T09:39:00;99881.00;;;16.70
80581;BMP180;1474;51.460;7.150;2023-12-04T09:41:26;99880.00;;;16.90
80581;BMP180;1474;51.460;7.150;2023-12-04T09:43:53;99873.00;;;17.10
80581;BMP180;1474;51.460;7.150;2023-12-04T09:46:19;99875.00;;;17.30
80581;BMP180;1474;51.460;7.150;2023-12-04T09:48:45;99871.00;;;17.40
80581;BMP180;1474;51.460;7.150;2023-12-04T09:51:14;99873.00;;;17.60
80581;BMP180;1474;51.460;7.150;2023-12-04T09:53:41;99867.00;;;17.70
80581;BMP180;1474;51.460;7.150;2023-12-04T09:56:08;99862.00;;;17.80
80581;BMP180;1474;51.460;7.150;2023-12-04T09:58:39;99863.00;;;18.00
80581;BMP180;1474;51.460;7.150;2023-12-04T10:01:07;99865.00;;;18.20
80581;BMP180;1474;51.460;7.150;2023-12-04T10:03:35;99857.00;;;18.30
80581;BMP180;1474;51.460;7.150;2023-12-04T10:06:01;99854.00;;;18.40
80581;BMP180;1474;51.460;7.150;2023-12-04T10:08:27;99849.00;;;18.50
80581;BMP180;1474;51.460;7.150;2023-12-04T10:10:53;99851.00;;;18.50
80581;BMP180;1474;51.460;7.150;2023-12-04T10:13:19;99847.00;;;18.50
80581;BMP180;1474;51.460;7.150;2023-12-04T10:15:50;99843.00;;;18.40
80581;BMP180;1474;51.460;7.150;2023-12-04T10:18:28;99840.00;;;18.40
80581;BMP180;1474;51.460;7.150;2023-12-04T10:20:56;99844.00;;;18.50
80581;BMP180;1474;51.460;7.150;2023-12-04T10:23:36;99827.00;;;18.60
80581;BMP180;1474;51.460;7.150;2023-12-04T10:26:02;99831.00;;;18.70
80581;BMP180;1474;51.460;7.150;2023-12-04T10:28:28;99824.00;;;18.80
80581;BMP180;1474;51.460;7.150;2023-12-04T10:30:55;99823.00;;;18.80
80581;BMP180;1474;51.460;7.150;2023-12-04T10:33:24;99806.00;;;18.90
80581;BMP180;1474;51.460;7.150;2023-12-04T10:35:51;99812.00;;;19.00
80581;BMP180;1474;51.460;7.150;2023-12-04T10:38:18;99813.00;;;19.00
80581;BMP180;1474;51.460;7.150;2023-12-04T10:40:44;99819.00;;;19.10
80581;BMP180;1474;51.460;7.150;2023-12-04T10:43:21;99821.00;;;19.20
80581;BMP180;1474;51.460;7.150;2023-12-04T10:45:48;99803.00;;;19.20
80581;BMP180;1474;51.460;7.150;2023-12-04T10:48:17;99798.00;;;19.30
80581;BMP180;1474;51.460;7.150;2023-12-04T10:50:46;99797.00;;;19.30
80581;BMP180;1474;51.460;7.150;2023-12-04T10:53:17;99785.00;;;19.30
80581;BMP180;1474;51.460;7.150;2023-12-04T10:55:44;99783.00;;;19.30
80581;BMP180;1474;51.460;7.150;2023-12-04T10:58:15;99788.00;;;19.20
80581;BMP180;1474;51.460;7.150;2023-12-04T11:00:48;99786.00;;;19.20
80581;BMP180;1474;51.460;7.150;2023-12-04T11:03:25;99779.00;;;19.30
80581;BMP180;1474;51.460;7.150;2023-12-04T11:06:00;99785.00;;;19.40
80581;BMP180;1474;51.460;7.150;2023-12-04T11:08:29;99776.00;;;19.40
80581;BMP180;1474;51.460;7.150;2023-12-04T11:11:04;99776.00;;;19.50
80581;BMP180;1474;51.460;7.150;2023-12-04T11:13:37;99778.00;;;19.60
80581;BMP180;1474;51.460;7.150;2023-12-04T11:19:55;99777.00;;;19.80
80581;BMP180;1474;51.460;7.150;2023-12-04T11:22:25;99777.00;;;19.80
80581;BMP180;1474;51.460;7.150;2023-12-04T11:32:14;99776.00;;;19.70
80581;BMP180;1474;51.460;7.150;2023-12-04T11:34:49;99773.00;;;19.80
80581;BMP180;1474;51.460;7.150;2023-12-04T11:37:15;99772.00;;;19.90
80581;BMP180;1474;51.460;7.150;2023-12-04T11:39:41;99768.00;;;19.90
80581;BMP180;1474;51.460;7.150;2023-12-04T11:42:07;99758.00;;;20.00
80581;BMP180;1474;51.460;7.150;2023-12-04T11:44:33;99758.00;;;20.00
80581;BMP180;1474;51.460;7.150;2023-12-04T11:47:05;99753.00;;;20.10
80581;BMP180;1474;51.460;7.150;2023-12-04T11:49:32;99752.00;;;20.10
80581;BMP180;1474;51.460;7.150;2023-12-04T11:52:00;99752.00;;;20.00
80581;BMP180;1474;51.460;7.150;2023-12-04T11:54:28;99747.00;;;19.90
80581;BMP180;1474;51.460;7.150;2023-12-04T11:59:39;99747.00;;;20.00
80581;BMP180;1474;51.460;7.150;2023-12-04T12:02:09;99740.00;;;20.10
80581;BMP180;1474;51.460;7.150;2023-12-04T12:04:35;99737.00;;;20.20
80581;BMP180;1474;51.460;7.150;2023-12-04T12:07:01;99740.00;;;20.20
80581;BMP180;1474;51.460;7.150;2023-12-04T12:09:34;99737.00;;;20.30
80581;BMP180;1474;51.460;7.150;2023-12-04T12:12:02;99738.00;;;20.30
80581;BMP180;1474;51.460;7.150;2023-12-04T12:14:31;99733.00;;;20.30
80581;BMP180;1474;51.460;7.150;2023-12-04T12:17:00;99732.00;;;20.20
80581;BMP180;1474;51.460;7.150;2023-12-04T12:19:27;99731.00;;;20.20
80581;BMP180;1474;51.460;7.150;2023-12-04T12:21:53;99722.00;;;20.10
80581;BMP180;1474;51.460;7.150;2023-12-04T12:24:18;99726.00;;;20.10
80581;BMP180;1474;51.460;7.150;2023-12-04T12:26:44;99723.00;;;20.20
80581;BMP180;1474;51.460;7.150;2023-12-04T12:29:13;99719.00;;;20.30
80581;BMP180;1474;51.460;7.150;2023-12-04T12:31:39;99709.00;;;20.40
80581;BMP180;1474;51.460;7.150;2023-12-04T12:34:05;99702.00;;;20.40
80581;BMP180;1474;51.460;7.150;2023-12-04T12:36:32;99693.00;;;20.50
80581;BMP180;1474;51.460;7.150;2023-12-04T12:39:01;99689.00;;;20.40
80581;BMP180;1474;51.460;7.150;2023-12-04T12:41:30;99687.00;;;20.50
80581;BMP180;1474;51.460;7.150;2023-12-04T12:43:55;99688.00;;;20.30
80581;BMP180;1474;51.460;7.150;2023-12-04T12:46:22;99678.00;;;20.20
80581;BMP180;1474;51.460;7.150;2023-12-04T12:48:48;99673.00;;;20.30
80581;BMP180;1474;51.460;7.150;2023-12-04T12:51:14;99662.00;;;20.40
80581;BMP180;1474;51.460;7.150;2023-12-04T12:53:40;99672.00;;;20.50
80581;BMP180;1474;51.460;7.150;2023-12-04T12:56:07;99668.00;;;20.50
80581;BMP180;1474;51.460;7.150;2023-12-04T12:58:34;99667.00;;;20.60
80581;BMP180;1474;51.460;7.150;2023-12-04T13:01:00;99664.00;;;20.60
80581;BMP180;1474;51.460;7.150;2023-12-04T13:03:27;99666.00;;;20.70
80581;BMP180;1474;51.460;7.150;2023-12-04T13:05:53;99662.00;;;20.70
80581;BMP180;1474;51.460;7.150;2023-12-04T13:08:19;99660.00;;;20.70
80581;BMP180;1474;51.460;7.150;2023-12-04T13:10:45;99662.00;;;20.60
80581;BMP180;1474;51.460;7.150;2023-12-04T13:13:14;99644.00;;;20.50
80581;BMP180;1474;51.460;7.150;2023-12-04T13:15:41;99641.00;;;20.50
80581;BMP180;1474;51.460;7.150;2023-12-04T13:18:07;99637.00;;;20.60
80581;BMP180;1474;51.460;7.150;2023-12-04T13:20:33;99631.00;;;20.70
80581;BMP180;1474;51.460;7.150;2023-12-04T13:23:02;99627.00;;;20.70
80581;BMP180;1474;51.460;7.150;2023-12-04T13:25:28;99619.00;;;20.70
80581;BMP180;1474;51.460;7.150;2023-12-04T13:27:54;99612.00;;;20.80
80581;BMP180;1474;51.460;7.150;2023-12-04T13:30:20;99619.00;;;20.90
80581;BMP180;1474;51.460;7.150;2023-12-04T13:32:46;99614.00;;;21.00
80581;BMP180;1474;51.460;7.150;2023-12-04T13:35:12;99598.00;;;21.00
80581;BMP180;1474;51.460;7.150;2023-12-04T13:37:38;99599.00;;;21.00
80581;BMP180;1474;51.460;7.150;2023-12-04T13:40:06;99606.00;;;20.90
80581;BMP180;1474;51.460;7.150;2023-12-04T13:42:34;99593.00;;;20.80
80581;BMP180;1474;51.460;7.150;2023-12-04T13:45:18;99594.00;;;20.80
80581;BMP180;1474;51.460;7.150;2023-12-04T13:47:48;99592.00;;;20.80
80581;BMP180;1474;51.460;7.150;2023-12-04T13:50:14;99588.00;;;21.00
80581;BMP180;1474;51.460;7.150;2023-12-04T13:52:40;99589.00;;;21.00
80581;BMP180;1474;51.460;7.150;2023-12-04T13:55:09;99580.00;;;21.00
80581;BMP180;1474;51.460;7.150;2023-12-04T13:57:46;99576.00;;;21.10
80581;BMP180;1474;51.460;7.150;2023-12-04T14:00:21;99569.00;;;21.10
80581;BMP180;1474;51.460;7.150;2023-12-04T14:02:47;99554.00;;;21.10
80581;BMP180;1474;51.460;7.150;2023-12-04T14:05:13;99546.00;;;21.00
80581;BMP180;1474;51.460;7.150;2023-12-04T14:07:41;99541.00;;;20.90
80581;BMP180;1474;51.460;7.150;2023-12-04T14:10:09;99534.00;;;21.00
80581;BMP180;1474;51.460;7.150;2023-12-04T14:12:35;99536.00;;;21.10
80581;BMP180;1474;51.460;7.150;2023-12-04T14:15:03;99537.00;;;21.10
80581;BMP180;1474;51.460;7.150;2023-12-04T14:17:29;99528.00;;;21.10
80581;BMP180;1474;51.460;7.150;2023-12-04T14:19:54;99523.00;;;21.20
80581;BMP180;1474;51.460;7.150;2023-12-04T14:22:20;99522.00;;;21.20
80581;BMP180;1474;51.460;7.150;2023-12-04T14:24:46;99515.00;;;21.30
80581;BMP180;1474;51.460;7.150;2023-12-04T14:27:12;99519.00;;;21.20